createdAt,value
2022-12-13T00:00:51.724Z,7.40
2022-12-13T00:03:19.336Z,5.23
2022-12-13T00:05:47.119Z,5.33
2022-12-13T00:08:14.935Z,5.30
2022-12-13T00:10:43.463Z,6.57
2022-12-13T00:13:11.166Z,5.40
2022-12-13T00:15:38.776Z,6.67
2022-12-13T00:18:07.853Z,5.37
2022-12-13T00:20:35.862Z,5.27
2022-12-13T00:23:03.502Z,5.43
2022-12-13T00:25:31.163Z,4.73
2022-12-13T00:27:58.820Z,5.23
2022-12-13T00:30:26.604Z,5.03
2022-12-13T00:32:54.433Z,5.93
2022-12-13T00:35:23.413Z,5.43
2022-12-13T00:37:51.035Z,4.87
2022-12-13T00:40:18.708Z,6.00
2022-12-13T00:42:46.313Z,4.43
2022-12-13T00:45:14.450Z,7.07
2022-12-13T00:47:42.374Z,7.27
2022-12-13T00:50:10.193Z,8.87
2022-12-13T00:52:39.210Z,6.17
2022-12-13T00:55:07.497Z,5.90
2022-12-13T00:57:35.691Z,5.37
2022-12-13T01:00:03.357Z,5.90
2022-12-13T01:02:31.182Z,5.67
2022-12-13T01:04:59.315Z,6.83
2022-12-13T01:07:26.961Z,5.20
2022-12-13T01:09:56.030Z,5.47
2022-12-13T01:12:24.878Z,6.37
2022-12-13T01:14:56.083Z,6.60
2022-12-13T01:17:23.926Z,6.17
2022-12-13T01:19:51.646Z,6.67
2022-12-13T01:22:19.623Z,4.77
2022-12-13T01:24:47.263Z,6.10
2022-12-13T01:27:16.296Z,6.97
2022-12-13T01:29:43.926Z,6.17
2022-12-13T01:32:11.603Z,6.67
2022-12-13T01:34:39.391Z,7.37
2022-12-13T01:37:07.071Z,6.93
2022-12-13T01:39:38.186Z,5.67
2022-12-13T01:42:06.234Z,7.13
2022-12-13T01:44:52.445Z,6.50
2022-12-13T01:47:24.383Z,7.87
2022-12-13T01:49:52.415Z,7.83
2022-12-13T01:52:20.221Z,8.23
2022-12-13T01:54:49.350Z,6.17
2022-12-13T01:57:18.920Z,8.93
2022-12-13T01:59:47.100Z,7.73
2022-12-13T02:02:15.480Z,8.60
2022-12-13T02:04:46.570Z,8.30
2022-12-13T02:07:23.296Z,7.87
2022-12-13T02:09:56.663Z,7.37
2022-12-13T02:12:29.571Z,8.27
2022-12-13T02:15:00.938Z,7.83
2022-12-13T02:17:34.119Z,8.00
2022-12-13T02:20:24.644Z,8.00
2022-12-13T02:22:59.761Z,11.17
2022-12-13T02:25:42.166Z,9.40
2022-12-13T02:28:30.431Z,7.40
2022-12-13T02:31:04.468Z,8.17
2022-12-13T02:33:37.119Z,6.60
2022-12-13T02:36:09.363Z,8.13
2022-12-13T02:38:40.463Z,7.97
2022-12-13T02:41:14.551Z,8.23
2022-12-13T02:43:46.290Z,8.17
2022-12-13T02:46:17.026Z,8.87
2022-12-13T02:48:46.297Z,9.43
2022-12-13T02:51:14.169Z,8.33
2022-12-13T02:53:42.652Z,9.93
2022-12-13T02:56:10.328Z,9.20
2022-12-13T02:58:39.110Z,10.23
2022-12-13T03:01:27.901Z,9.00
2022-12-13T03:04:02.842Z,9.20
2022-12-13T03:06:34.885Z,7.00
2022-12-13T03:09:12.064Z,11.93
2022-12-13T03:12:03.840Z,9.77
2022-12-13T03:14:35.014Z,9.47
2022-12-13T03:17:03.554Z,9.87
2022-12-13T03:19:32.653Z,7.53
2022-12-13T03:22:00.277Z,10.20
2022-12-13T03:24:27.997Z,8.27
2022-12-13T03:26:55.670Z,11.30
2022-12-13T03:29:24.641Z,10.37
2022-12-13T03:31:52.765Z,11.67
2022-12-13T03:34:22.823Z,10.27
2022-12-13T03:36:53.128Z,9.30
2022-12-13T03:39:21.002Z,9.90
2022-12-13T03:41:48.786Z,11.03
2022-12-13T03:44:16.689Z,11.13
2022-12-13T03:46:44.328Z,9.97
2022-12-13T03:49:16.859Z,10.30
2022-12-13T03:51:45.276Z,10.53
2022-12-13T03:54:14.354Z,13.17
2022-12-13T03:56:42.001Z,13.13
2022-12-13T03:59:09.729Z,15.47
2022-12-13T04:01:37.428Z,11.33
2022-12-13T04:04:05.122Z,13.80
2022-12-13T04:06:33.332Z,15.67
2022-12-13T04:09:01.355Z,13.23
2022-12-13T04:11:48.270Z,12.53
2022-12-13T04:14:22.441Z,11.40
2022-12-13T04:16:50.725Z,10.27
2022-12-13T04:19:23.379Z,11.63
2022-12-13T04:21:54.506Z,11.93
2022-12-13T04:24:22.343Z,8.53
2022-12-13T04:27:01.550Z,8.83
2022-12-13T04:29:33.962Z,9.73
2022-12-13T04:32:02.634Z,13.60
2022-12-13T04:34:36.545Z,16.67
2022-12-13T04:37:04.795Z,9.37
2022-12-13T04:39:34.219Z,11.57
2022-12-13T04:42:03.654Z,9.00
2022-12-13T04:44:36.559Z,10.20
2022-12-13T04:47:05.114Z,11.53
2022-12-13T04:49:32.789Z,14.93
2022-12-13T04:52:01.609Z,13.27
2022-12-13T04:54:35.688Z,13.73
2022-12-13T04:57:06.612Z,11.47
2022-12-13T04:59:34.309Z,11.97
2022-12-13T05:02:02.030Z,8.07
2022-12-13T05:04:33.027Z,12.90
2022-12-13T05:07:01.333Z,10.77
2022-12-13T05:09:29.007Z,12.53
2022-12-13T05:12:01.702Z,12.37
2022-12-13T05:14:31.302Z,14.17
2022-12-13T05:16:59.028Z,12.93
2022-12-13T05:19:30.552Z,10.83
2022-12-13T05:22:01.546Z,13.60
2022-12-13T05:24:29.872Z,15.80
2022-12-13T05:26:58.419Z,12.43
2022-12-13T05:29:27.695Z,12.73
2022-12-13T05:31:56.799Z,14.73
2022-12-13T05:34:24.548Z,12.70
2022-12-13T05:36:52.422Z,10.83
2022-12-13T05:39:28.463Z,8.90
2022-12-13T05:42:01.364Z,12.47
2022-12-13T05:44:30.234Z,10.57
2022-12-13T05:46:59.346Z,18.30
2022-12-13T05:49:29.936Z,19.20
2022-12-13T05:51:57.537Z,13.40
2022-12-13T05:54:25.355Z,13.90
2022-12-13T05:56:53.014Z,16.93
2022-12-13T05:59:20.824Z,15.47
2022-12-13T06:01:48.525Z,13.73
2022-12-13T06:04:22.277Z,14.40
2022-12-13T06:06:51.353Z,14.93
2022-12-13T06:09:19.337Z,15.07
2022-12-13T06:11:47.680Z,7.40
2022-12-13T06:14:21.608Z,14.97
2022-12-13T06:16:50.747Z,15.27
2022-12-13T06:19:19.858Z,13.83
2022-12-13T06:21:47.531Z,10.43
2022-12-13T06:24:15.986Z,17.63
2022-12-13T06:26:45.019Z,13.33
2022-12-13T06:29:13.138Z,14.53
2022-12-13T06:32:01.428Z,12.13
2022-12-13T06:34:32.701Z,13.73
2022-12-13T06:37:01.032Z,10.93
2022-12-13T06:39:33.230Z,19.67
2022-12-13T06:42:01.627Z,18.00
2022-12-13T06:44:29.340Z,15.53
2022-12-13T06:47:10.504Z,14.17
2022-12-13T06:49:42.307Z,11.63
2022-12-13T06:52:10.464Z,10.27
2022-12-13T06:54:38.123Z,10.77
2022-12-13T06:57:05.823Z,12.43
2022-12-13T06:59:33.776Z,8.50
2022-12-13T07:02:03.556Z,10.97
2022-12-13T07:04:31.951Z,10.03
2022-12-13T07:07:01.846Z,15.10
2022-12-13T07:09:29.931Z,13.37
2022-12-13T07:11:57.639Z,12.00
2022-12-13T07:14:25.301Z,12.93
2022-12-13T07:16:56.631Z,13.00
2022-12-13T07:19:27.386Z,15.87
2022-12-13T07:22:05.956Z,12.63
2022-12-13T07:24:34.047Z,20.13
2022-12-13T07:27:01.716Z,10.47
2022-12-13T07:29:29.366Z,10.90
2022-12-13T07:32:01.805Z,14.23
2022-12-13T07:34:30.058Z,13.00
2022-12-13T07:36:57.810Z,14.00
2022-12-13T07:39:27.164Z,11.97
2022-12-13T07:41:55.681Z,14.90
2022-12-13T07:44:23.413Z,15.30
2022-12-13T07:46:51.159Z,17.23
2022-12-13T07:49:18.847Z,13.83
2022-12-13T07:51:46.572Z,12.80
2022-12-13T07:54:14.280Z,12.87
2022-12-13T07:56:43.487Z,17.90
2022-12-13T07:59:11.403Z,14.80
2022-12-13T08:01:39.129Z,12.93
2022-12-13T08:04:06.927Z,15.47
2022-12-13T08:06:36.208Z,16.87
2022-12-13T08:09:03.869Z,14.50
2022-12-13T08:11:32.080Z,13.60
2022-12-13T08:14:01.084Z,13.10
2022-12-13T08:16:29.903Z,11.17
2022-12-13T08:19:02.245Z,16.00
2022-12-13T08:24:22.331Z,15.17
2022-12-13T08:26:50.266Z,14.27
2022-12-13T08:29:22.728Z,12.57
2022-12-13T08:32:01.730Z,13.57
2022-12-13T08:34:29.561Z,11.27
2022-12-13T08:37:02.199Z,9.10
2022-12-13T08:39:33.997Z,11.20
2022-12-13T08:42:16.524Z,13.37
2022-12-13T08:44:47.257Z,16.23
2022-12-13T08:47:23.110Z,13.80
2022-12-13T08:49:53.737Z,15.10
2022-12-13T08:52:22.233Z,10.77
2022-12-13T08:54:49.897Z,9.90
2022-12-13T08:57:17.573Z,9.40
2022-12-13T08:59:45.268Z,12.33
2022-12-13T09:02:14.909Z,15.80
2022-12-13T09:04:42.687Z,11.73
2022-12-13T09:07:10.285Z,11.40
2022-12-13T09:09:38.005Z,10.87
2022-12-13T09:12:10.365Z,10.17
2022-12-13T09:14:45.510Z,12.27
2022-12-13T09:17:24.310Z,8.50
2022-12-13T09:19:58.183Z,12.30
2022-12-13T09:22:33.448Z,9.03
2022-12-13T09:25:02.401Z,9.33
2022-12-13T09:27:31.052Z,7.20
2022-12-13T09:30:08.998Z,11.57
2022-12-13T09:32:40.807Z,9.07
2022-12-13T09:35:12.507Z,9.27
2022-12-13T09:40:59.116Z,11.07
2022-12-13T09:43:42.448Z,10.67
2022-12-13T09:46:26.089Z,12.83
2022-12-13T09:49:22.813Z,11.40
2022-12-13T09:55:21.149Z,9.57
2022-12-13T09:57:49.599Z,13.67
2022-12-13T10:00:19.083Z,13.13
2022-12-13T10:02:47.484Z,11.57
2022-12-13T10:05:35.702Z,14.27
2022-12-13T10:08:07.421Z,13.57
2022-12-13T10:10:35.078Z,11.67
2022-12-13T10:13:05.707Z,10.27
2022-12-13T10:15:34.429Z,12.70
2022-12-13T10:18:04.054Z,11.90
2022-12-13T10:20:34.295Z,11.13
2022-12-13T10:23:31.636Z,12.57
2022-12-13T10:25:51.707Z,11.60
2022-12-13T10:28:20.848Z,13.43
2022-12-13T10:30:48.445Z,13.53
2022-12-13T10:33:24.657Z,14.47
2022-12-13T10:36:13.359Z,12.70
2022-12-13T10:38:42.242Z,11.33
2022-12-13T10:41:26.483Z,11.60
2022-12-13T10:44:08.551Z,14.33
2022-12-13T10:46:38.753Z,13.60
2022-12-13T10:49:14.350Z,15.23
2022-12-13T10:51:45.569Z,15.00
2022-12-13T10:54:16.864Z,13.07
2022-12-13T10:56:46.588Z,17.03
2022-12-13T10:59:24.468Z,19.53
2022-12-13T11:01:52.354Z,16.07
2022-12-13T11:04:27.850Z,14.20
2022-12-13T11:06:57.861Z,14.37
2022-12-13T11:09:30.069Z,15.13
2022-12-13T11:12:13.115Z,15.00
2022-12-13T11:14:48.694Z,16.00
2022-12-13T11:17:18.027Z,13.23
2022-12-13T11:19:47.630Z,14.10
2022-12-13T11:22:23.141Z,16.67
2022-12-13T11:24:51.628Z,17.33
2022-12-13T11:27:40.139Z,15.47
2022-12-13T11:30:13.012Z,17.67
2022-12-13T11:32:52.529Z,14.90
2022-12-13T11:35:26.971Z,16.33
2022-12-13T11:38:04.446Z,14.67
2022-12-13T11:40:33.718Z,16.03
2022-12-13T11:43:03.546Z,17.23
2022-12-13T11:45:32.507Z,16.20
2022-12-13T11:48:14.260Z,15.57
2022-12-13T11:50:43.121Z,17.00
2022-12-13T11:53:22.219Z,17.87
2022-12-13T11:55:52.573Z,18.37
2022-12-13T11:58:45.775Z,17.03
2022-12-13T12:01:12.744Z,16.63
2022-12-13T12:03:42.957Z,13.90
2022-12-13T12:06:13.500Z,14.33
2022-12-13T12:08:47.271Z,18.23
2022-12-13T12:11:20.181Z,13.27
2022-12-13T12:13:51.467Z,13.50
2022-12-13T12:16:24.294Z,15.73
2022-12-13T12:18:52.205Z,13.90
2022-12-13T12:21:37.339Z,15.00
2022-12-13T12:24:21.619Z,18.60
2022-12-13T12:26:56.405Z,20.50
2022-12-13T12:29:45.845Z,17.03
2022-12-13T12:32:19.305Z,18.23
2022-12-13T12:34:50.206Z,20.60
2022-12-13T12:37:23.350Z,15.90
2022-12-13T12:39:59.702Z,16.70
2022-12-13T12:43:13.426Z,17.30
2022-12-13T12:48:52.020Z,19.67
2022-12-13T12:51:18.871Z,23.13
2022-12-13T12:53:48.472Z,25.83
2022-12-13T12:56:24.016Z,24.23
2022-12-13T12:58:56.781Z,22.63
2022-12-13T13:01:36.133Z,24.27
2022-12-13T13:04:13.304Z,22.40
2022-12-13T13:06:53.238Z,22.13
2022-12-13T13:09:29.770Z,21.23
2022-12-13T13:12:00.273Z,19.37
2022-12-13T13:14:30.085Z,20.73
2022-12-13T13:16:58.101Z,21.43
2022-12-13T13:19:41.989Z,23.87
2022-12-13T13:22:31.492Z,23.10
2022-12-13T13:25:01.960Z,21.37
2022-12-13T13:27:31.789Z,20.53
2022-12-13T13:30:06.930Z,24.50
2022-12-13T13:32:37.184Z,20.50
2022-12-13T13:35:26.235Z,24.53
2022-12-13T13:37:53.891Z,16.90
2022-12-13T13:40:30.691Z,17.13
2022-12-13T13:43:13.957Z,16.63
2022-12-13T13:45:55.754Z,18.33
2022-12-13T13:48:36.488Z,17.00
2022-12-13T13:51:15.433Z,19.87
2022-12-13T13:54:04.008Z,16.30
2022-12-13T13:56:50.177Z,18.27
2022-12-13T13:59:38.078Z,19.73
2022-12-13T14:02:24.006Z,25.83
2022-12-13T14:05:17.791Z,22.57
2022-12-13T14:08:03.582Z,24.63
2022-12-13T14:10:38.225Z,22.40
2022-12-13T14:13:44.594Z,23.20
2022-12-13T14:16:34.945Z,17.63
2022-12-13T14:19:33.177Z,19.37
2022-12-13T14:22:10.276Z,20.50
2022-12-13T14:24:42.675Z,16.57
2022-12-13T14:27:13.771Z,21.27
2022-12-13T14:29:48.168Z,20.37
2022-12-13T14:32:26.734Z,23.10
2022-12-13T14:34:55.326Z,25.60
2022-12-13T14:37:27.895Z,24.17
2022-12-13T14:39:55.759Z,21.17
2022-12-13T14:42:24.694Z,26.50
2022-12-13T14:44:52.450Z,20.10
2022-12-13T14:47:20.552Z,19.70
2022-12-13T14:49:51.485Z,26.07
2022-12-13T14:52:26.160Z,24.50
2022-12-13T14:54:58.247Z,20.07
2022-12-13T14:57:27.551Z,26.13
2022-12-13T14:59:55.947Z,25.43
2022-12-13T15:02:31.311Z,29.53
2022-12-13T15:05:00.837Z,32.83
2022-12-13T15:07:29.839Z,31.03
2022-12-13T15:10:00.839Z,30.07
2022-12-13T15:12:30.001Z,32.90
2022-12-13T15:15:00.673Z,31.47
2022-12-13T15:17:31.281Z,39.27
2022-12-13T15:19:59.212Z,33.63
2022-12-13T15:22:29.365Z,32.80
2022-12-13T15:24:59.398Z,32.07
2022-12-13T15:27:27.403Z,34.93
2022-12-13T15:29:55.425Z,41.40
2022-12-13T15:32:23.964Z,35.17
2022-12-13T15:34:52.443Z,36.50
2022-12-13T15:37:29.049Z,34.87
2022-12-13T15:40:01.086Z,37.90
2022-12-13T15:42:31.072Z,34.53
2022-12-13T15:45:00.639Z,41.20
2022-12-13T15:47:29.353Z,34.90
2022-12-13T15:49:58.314Z,40.50
2022-12-13T15:52:35.867Z,37.17
2022-12-13T15:55:19.639Z,33.97
2022-12-13T15:57:51.926Z,40.70
2022-12-13T16:00:31.745Z,41.20
2022-12-13T16:03:08.928Z,37.53
2022-12-13T16:05:38.889Z,49.70
2022-12-13T16:08:13.852Z,56.43
2022-12-13T16:10:46.820Z,57.13
2022-12-13T16:13:26.115Z,48.40
2022-12-13T16:16:00.377Z,41.27
2022-12-13T16:18:44.065Z,40.67
2022-12-13T16:21:11.824Z,37.37
2022-12-13T16:23:39.477Z,34.37
2022-12-13T16:26:09.242Z,22.93
2022-12-13T16:28:38.513Z,21.13
2022-12-13T16:31:15.861Z,21.17
2022-12-13T16:33:44.928Z,20.10
2022-12-13T16:36:12.842Z,25.83
2022-12-13T16:38:40.577Z,27.20
2022-12-13T16:41:09.612Z,36.70
2022-12-13T16:43:41.304Z,41.00
2022-12-13T16:47:12.765Z,43.43
2022-12-13T16:49:02.393Z,43.70
2022-12-13T16:51:30.087Z,40.00
2022-12-13T16:53:57.707Z,30.63
2022-12-13T16:56:25.355Z,28.53
2022-12-13T16:58:54.421Z,30.53
2022-12-13T17:01:22.166Z,36.63
2022-12-13T17:03:49.834Z,33.47
2022-12-13T17:06:24.480Z,34.83
2022-12-13T17:08:52.105Z,33.73
2022-12-13T17:11:20.185Z,34.30
2022-12-13T17:13:49.735Z,35.90
2022-12-13T17:16:18.957Z,33.73
2022-12-13T17:18:46.667Z,44.27
2022-12-13T17:21:14.548Z,48.50
2022-12-13T17:23:42.151Z,40.10
2022-12-13T17:26:10.777Z,42.77
2022-12-13T17:28:38.887Z,43.67
2022-12-13T17:31:07.459Z,46.77
2022-12-13T17:33:37.262Z,39.70
2022-12-13T17:36:05.826Z,47.50
2022-12-13T17:38:33.690Z,43.17
2022-12-13T17:41:01.506Z,38.17
2022-12-13T17:43:34.800Z,37.03
2022-12-13T17:46:03.446Z,43.60
2022-12-13T17:48:37.205Z,38.03
2022-12-13T17:51:08.824Z,39.57
2022-12-13T17:53:37.043Z,36.93
2022-12-13T17:56:06.676Z,43.27
2022-12-13T17:58:34.769Z,46.23
2022-12-13T18:01:10.673Z,46.33
2022-12-13T18:03:38.352Z,41.40
2022-12-13T18:06:07.138Z,41.07
2022-12-13T18:08:36.882Z,39.97
2022-12-13T18:13:54.963Z,31.53
2022-12-13T18:16:23.508Z,35.93
2022-12-13T18:18:55.365Z,33.57
2022-12-13T18:21:25.853Z,29.13
2022-12-13T18:23:56.160Z,33.93
2022-12-13T18:26:24.672Z,28.70
2022-12-13T18:28:52.701Z,24.63
2022-12-13T18:31:22.092Z,26.20
2022-12-13T18:33:50.546Z,29.67
2022-12-13T18:36:18.437Z,29.90
2022-12-13T18:38:46.299Z,28.63
2022-12-13T18:41:17.388Z,28.97
2022-12-13T18:43:45.872Z,29.93
2022-12-13T18:46:14.261Z,32.00
2022-12-13T18:48:42.054Z,31.10
2022-12-13T18:51:10.871Z,33.43
2022-12-13T18:53:39.199Z,30.57
2022-12-13T18:56:11.579Z,29.63
2022-12-13T18:58:43.406Z,28.87
2022-12-13T19:01:13.146Z,31.03
2022-12-13T19:03:41.054Z,33.30
2022-12-13T19:06:09.069Z,26.97
2022-12-13T19:08:37.138Z,26.17
2022-12-13T19:11:05.535Z,25.37
2022-12-13T19:13:33.880Z,27.33
2022-12-13T19:16:07.543Z,29.90
2022-12-13T19:18:35.672Z,29.43
2022-12-13T19:21:03.341Z,28.67
2022-12-13T19:23:32.197Z,31.27
2022-12-13T19:26:05.095Z,30.40
2022-12-13T19:28:32.749Z,29.80
2022-12-13T19:31:00.462Z,26.83
2022-12-13T19:33:29.589Z,36.80
2022-12-13T19:35:57.258Z,30.37
2022-12-13T19:38:25.298Z,28.13
2022-12-13T19:40:53.066Z,21.23
2022-12-13T19:43:21.570Z,25.97
2022-12-13T19:45:49.337Z,23.03
2022-12-13T19:48:17.204Z,21.13
2022-12-13T19:50:46.689Z,22.03
2022-12-13T19:53:14.349Z,24.33
2022-12-13T19:55:44.041Z,24.60
2022-12-13T19:58:12.007Z,22.83
2022-12-13T20:00:39.682Z,20.77
2022-12-13T20:03:07.578Z,19.73
2022-12-13T20:05:36.002Z,22.03
2022-12-13T20:08:05.414Z,23.10
2022-12-13T20:10:34.722Z,18.93
2022-12-13T20:13:02.870Z,23.67
2022-12-13T20:15:30.845Z,25.37
2022-12-13T20:17:58.810Z,21.73
2022-12-13T20:20:40.994Z,26.47
2022-12-13T20:23:15.846Z,29.10
2022-12-13T20:25:43.540Z,35.67
2022-12-13T20:28:16.477Z,32.80
2022-12-13T20:30:44.324Z,29.27
2022-12-13T20:33:14.737Z,31.37
2022-12-13T20:36:22.146Z,36.27
2022-12-13T20:38:35.623Z,33.97
2022-12-13T20:41:03.727Z,29.33
2022-12-13T20:43:31.867Z,36.37
2022-12-13T20:46:03.352Z,32.77
2022-12-13T20:48:31.270Z,28.03
2022-12-13T20:51:02.309Z,24.07
2022-12-13T20:53:32.148Z,23.53
2022-12-13T20:56:01.649Z,39.50
2022-12-13T20:58:29.394Z,40.67
2022-12-13T21:00:57.079Z,32.90
2022-12-13T21:03:25.551Z,36.40
2022-12-13T21:05:53.738Z,27.30
2022-12-13T21:08:39.003Z,18.20
2022-12-13T21:11:26.723Z,20.60
2022-12-13T21:14:03.821Z,20.10
2022-12-13T21:16:34.932Z,21.20
2022-12-13T21:19:02.853Z,19.03
2022-12-13T21:21:30.855Z,17.37
2022-12-13T21:23:58.600Z,15.37
2022-12-13T21:26:34.683Z,15.23
2022-12-13T21:29:04.556Z,17.27
2022-12-13T21:31:32.253Z,20.37
2022-12-13T21:34:00.564Z,18.63
2022-12-13T21:36:29.180Z,25.10
2022-12-13T21:38:57.306Z,24.93
2022-12-13T21:41:25.510Z,20.83
2022-12-13T21:43:54.778Z,31.23
2022-12-13T21:46:26.013Z,29.23
2022-12-13T21:48:57.981Z,29.47
2022-12-13T21:51:26.231Z,23.53
2022-12-13T21:53:54.424Z,20.97
2022-12-13T21:56:40.849Z,19.43
2022-12-13T21:59:17.590Z,23.00
2022-12-13T22:02:04.325Z,23.63
2022-12-13T22:04:32.380Z,20.77
2022-12-13T22:07:00.349Z,25.63
2022-12-13T22:09:28.059Z,23.60
2022-12-13T22:11:56.738Z,22.23
2022-12-13T22:14:25.825Z,22.53
2022-12-13T22:16:53.790Z,20.10
2022-12-13T22:19:21.490Z,24.10
2022-12-13T22:21:49.639Z,25.37
2022-12-13T22:24:17.656Z,22.93
2022-12-13T22:26:45.267Z,25.63
2022-12-13T22:29:13.795Z,29.67
2022-12-13T22:31:42.987Z,29.73
2022-12-13T22:34:16.670Z,32.97
2022-12-13T22:36:44.746Z,31.77
2022-12-13T22:39:15.986Z,33.77
2022-12-13T22:41:43.678Z,30.33
2022-12-13T22:44:12.261Z,32.00
2022-12-13T22:46:39.962Z,28.53
2022-12-13T22:49:09.264Z,23.40
2022-12-13T22:51:37.308Z,29.47
2022-12-13T22:54:05.189Z,26.53
2022-12-13T22:56:32.836Z,22.50
2022-12-13T22:59:02.255Z,24.10
2022-12-13T23:01:30.815Z,22.53
2022-12-13T23:03:58.716Z,18.67
2022-12-13T23:06:29.638Z,19.43
2022-12-13T23:08:57.942Z,21.47
2022-12-13T23:11:43.679Z,15.00
2022-12-13T23:14:12.321Z,19.87
2022-12-13T23:16:40.217Z,15.47
2022-12-13T23:19:40.335Z,20.37
2022-12-13T23:21:59.262Z,21.20
2022-12-13T23:24:27.430Z,19.23
2022-12-13T23:26:55.236Z,19.33
2022-12-13T23:29:22.872Z,16.53
2022-12-13T23:31:50.656Z,20.00
2022-12-13T23:34:18.364Z,19.17
2022-12-13T23:36:46.001Z,18.13
2022-12-13T23:39:15.193Z,16.83
2022-12-13T23:41:42.881Z,17.23
2022-12-13T23:44:11.146Z,17.13
2022-12-13T23:46:38.829Z,17.43
2022-12-13T23:49:07.096Z,17.57
2022-12-13T23:51:35.361Z,15.27
2022-12-13T23:54:03.013Z,18.50
2022-12-13T23:56:31.998Z,16.50
2022-12-13T23:58:59.664Z,16.20
